< < Back
Terminal Aerodrome Forecast


Current Version              Previous Versions:   1  2  3  4  5  6  7  8  9  

Terminal Aerodrome Forecast

321
FTUS42 KJAX 012320
TAFGNV
TAF
KGNV 012320Z 0200/0224 12008KT P6SM SCT050 SCT250
     FM020200 15003KT P6SM BKN250
      TEMPO 0207/0211 4SM BR
     FM021400 16010KT P6SM SCT035 BKN200=

Latest METAR

540
SAUS70 KWBC 021900 RRB
MTRGNV
METAR KGNV 021853Z 17007KT 10SM FEW060 BKN100 31/17 A3000 RMK AO2 SLP156
T03110172


USA.gov is the U.S. government's official web portal to all federal, state and local government web resources and services.